createdAt,value
2023-02-11T00:01:34.382Z,22.73
2023-02-11T00:04:03.284Z,21.80
2023-02-11T00:06:33.506Z,21.80
2023-02-11T00:09:01.454Z,20.40
2023-02-11T00:11:30.619Z,19.95
2023-02-11T00:14:02.536Z,23.90
2023-02-11T00:16:32.007Z,21.88
2023-02-11T00:19:02.607Z,21.95
2023-02-11T00:21:30.390Z,21.80
2023-02-11T00:24:00.046Z,24.95
2023-02-11T00:26:36.380Z,21.20
2023-02-11T00:29:05.785Z,19.92
2023-02-11T00:31:34.488Z,19.75
2023-02-11T00:34:02.886Z,21.70
2023-02-11T00:36:30.528Z,23.05
2023-02-11T00:38:59.804Z,20.05
2023-02-11T00:41:29.408Z,22.50
2023-02-11T00:44:01.938Z,21.77
2023-02-11T00:46:30.327Z,20.05
2023-02-11T00:48:58.129Z,19.67
2023-02-11T00:51:27.391Z,18.55
2023-02-11T00:53:55.767Z,22.58
2023-02-11T00:56:24.308Z,19.92
2023-02-11T00:58:53.426Z,22.13
2023-02-11T01:01:21.853Z,21.92
2023-02-11T01:03:50.192Z,21.45
2023-02-11T01:06:17.872Z,18.83
2023-02-11T01:08:46.438Z,20.00
2023-02-11T01:11:18.086Z,20.67
2023-02-11T01:13:48.064Z,21.08
2023-02-11T01:16:17.469Z,20.95
2023-02-11T01:18:46.350Z,21.20
2023-02-11T01:21:14.860Z,21.27
2023-02-11T01:23:44.831Z,22.20
2023-02-11T01:26:13.355Z,22.55
2023-02-11T01:28:41.224Z,21.80
2023-02-11T01:31:08.840Z,20.67
2023-02-11T01:33:36.541Z,22.38
2023-02-11T01:36:07.835Z,21.58
2023-02-11T01:38:36.468Z,20.73
2023-02-11T01:41:07.413Z,21.55
2023-02-11T01:43:38.284Z,23.13
2023-02-11T01:46:21.254Z,22.00
2023-02-11T01:48:53.939Z,21.90
2023-02-11T01:51:27.431Z,21.73
2023-02-11T01:54:16.369Z,21.13
2023-02-11T01:57:07.333Z,21.90
2023-02-11T01:59:44.883Z,21.52
2023-02-11T02:02:15.234Z,21.20
2023-02-11T02:04:57.583Z,21.02
2023-02-11T02:07:39.641Z,22.27
2023-02-11T02:10:15.798Z,20.20
2023-02-11T02:12:43.993Z,21.38
2023-02-11T02:15:23.097Z,21.35
2023-02-11T02:18:20.597Z,19.20
2023-02-11T02:21:21.876Z,22.48
2023-02-11T02:24:21.073Z,22.45
2023-02-11T02:27:12.541Z,22.17
2023-02-11T02:29:46.524Z,22.83
2023-02-11T02:32:35.234Z,25.10
2023-02-11T02:35:30.977Z,23.25
2023-02-11T02:38:24.148Z,21.10
2023-02-11T02:41:21.088Z,21.02
2023-02-11T02:43:50.998Z,20.88
2023-02-11T02:46:24.360Z,24.10
2023-02-11T02:48:53.769Z,25.23
2023-02-11T02:51:27.668Z,24.52
2023-02-11T02:53:55.316Z,19.98
2023-02-11T02:56:49.182Z,25.27
2023-02-11T02:59:23.101Z,24.88
2023-02-11T03:02:03.500Z,21.38
2023-02-11T03:04:38.153Z,24.77
2023-02-11T03:07:26.179Z,24.52
2023-02-11T03:10:23.247Z,23.27
2023-02-11T03:12:54.095Z,23.60
2023-02-11T03:15:25.342Z,23.25
2023-02-11T03:17:57.378Z,24.25
2023-02-11T03:20:28.447Z,25.13
2023-02-11T03:23:03.063Z,25.13
2023-02-11T03:25:37.313Z,28.25
2023-02-11T03:28:25.338Z,30.23
2023-02-11T03:31:10.898Z,29.05
2023-02-11T03:33:54.830Z,28.88
2023-02-11T03:36:32.915Z,27.85
2023-02-11T03:39:04.266Z,27.52
2023-02-11T03:41:34.301Z,27.13
2023-02-11T03:44:03.362Z,28.65
2023-02-11T03:46:36.870Z,28.80
2023-02-11T03:49:09.366Z,30.13
2023-02-11T03:51:38.120Z,21.33
2023-02-11T03:54:14.941Z,26.77
2023-02-11T03:56:51.350Z,31.55
2023-02-11T03:59:19.569Z,31.48
2023-02-11T04:01:47.350Z,32.08
2023-02-11T04:04:15.640Z,33.05
2023-02-11T04:06:43.588Z,31.27
2023-02-11T04:09:12.757Z,29.88
2023-02-11T04:11:40.412Z,30.30
2023-02-11T04:14:07.990Z,30.45
2023-02-11T04:16:36.016Z,28.38
2023-02-11T04:19:04.244Z,29.65
2023-02-11T04:21:32.261Z,30.27
2023-02-11T04:24:00.257Z,30.20
2023-02-11T04:26:28.313Z,27.83
2023-02-11T04:28:55.904Z,27.02
2023-02-11T04:31:24.158Z,26.60
2023-02-11T04:33:52.203Z,27.88
2023-02-11T04:36:20.421Z,27.98
2023-02-11T04:38:48.856Z,29.35
2023-02-11T04:41:16.371Z,26.75
2023-02-11T04:43:44.057Z,27.08
2023-02-11T04:46:11.826Z,27.92
2023-02-11T04:48:39.429Z,28.90
2023-02-11T04:51:07.092Z,31.33
2023-02-11T04:53:35.231Z,29.50
2023-02-11T04:56:03.260Z,27.52
2023-02-11T04:58:31.196Z,30.63
2023-02-11T05:01:10.328Z,29.08
2023-02-11T05:03:38.665Z,28.20
2023-02-11T05:06:07.090Z,31.52
2023-02-11T05:08:34.807Z,27.60
2023-02-11T05:11:02.517Z,27.48
2023-02-11T05:13:31.195Z,27.73
2023-02-11T05:15:59.497Z,26.60
2023-02-11T05:18:28.234Z,27.88
2023-02-11T05:20:55.871Z,29.50
2023-02-11T05:23:23.498Z,26.80
2023-02-11T05:25:51.722Z,26.48
2023-02-11T05:28:19.510Z,27.52
2023-02-11T05:30:47.206Z,25.67
2023-02-11T05:33:15.323Z,30.92
2023-02-11T05:35:43.307Z,28.55
2023-02-11T05:38:11.168Z,29.80
2023-02-11T05:40:40.344Z,28.52
2023-02-11T05:43:08.405Z,25.60
2023-02-11T05:45:36.938Z,27.02
2023-02-11T05:48:04.671Z,25.63
2023-02-11T05:50:32.334Z,29.67
2023-02-11T05:53:00.585Z,28.83
2023-02-11T05:55:28.358Z,29.05
2023-02-11T05:57:56.379Z,28.30
2023-02-11T06:00:24.339Z,29.05
2023-02-11T06:02:52.673Z,27.85
2023-02-11T06:05:20.801Z,26.98
2023-02-11T06:07:48.836Z,27.25
2023-02-11T06:10:16.315Z,29.45
2023-02-11T06:12:44.917Z,28.02
2023-02-11T06:15:13.037Z,29.67
2023-02-11T06:17:41.156Z,29.42
2023-02-11T06:20:10.700Z,28.88
2023-02-11T06:22:38.445Z,29.48
2023-02-11T06:25:07.411Z,27.92
2023-02-11T06:27:35.063Z,29.10
2023-02-11T06:30:03.153Z,27.92
2023-02-11T06:32:46.730Z,28.38
2023-02-11T06:37:43.172Z,27.75
2023-02-11T06:40:11.699Z,29.90
2023-02-11T06:42:39.702Z,29.95
2023-02-11T06:45:09.778Z,28.75
2023-02-11T06:47:38.234Z,27.83
2023-02-11T06:50:08.761Z,31.55
2023-02-11T06:52:36.835Z,30.88
2023-02-11T06:55:05.279Z,30.50
2023-02-11T06:57:33.171Z,30.38
2023-02-11T07:00:01.197Z,33.50
2023-02-11T07:02:29.033Z,33.58
2023-02-11T07:04:57.481Z,36.25
2023-02-11T07:07:24.979Z,35.20
2023-02-11T07:09:52.942Z,37.47
2023-02-11T07:12:20.559Z,35.00
2023-02-11T07:14:48.155Z,36.10
2023-02-11T07:17:16.282Z,37.47
2023-02-11T07:19:44.139Z,37.92
2023-02-11T07:22:12.205Z,38.63
2023-02-11T07:24:40.804Z,37.38
2023-02-11T07:27:08.434Z,39.38
2023-02-11T07:29:36.106Z,35.72
2023-02-11T07:32:04.324Z,37.05
2023-02-11T07:34:33.228Z,37.47
2023-02-11T07:37:01.479Z,40.45
2023-02-11T07:39:29.571Z,37.00
2023-02-11T07:41:57.637Z,39.80
2023-02-11T07:44:26.159Z,35.17
2023-02-11T07:46:54.439Z,35.03
2023-02-11T07:49:22.131Z,36.88
2023-02-11T07:51:51.538Z,35.58
2023-02-11T07:54:19.771Z,35.90
2023-02-11T07:56:47.417Z,36.55
2023-02-11T07:59:15.198Z,39.35
2023-02-11T08:01:44.008Z,35.97
2023-02-11T08:04:12.488Z,37.95
2023-02-11T08:06:42.734Z,37.72
2023-02-11T08:09:15.322Z,37.10
2023-02-11T08:11:43.366Z,35.23
2023-02-11T08:14:12.484Z,36.72
2023-02-11T08:16:41.242Z,45.10
2023-02-11T08:19:15.600Z,33.20
2023-02-11T08:21:43.898Z,30.92
2023-02-11T08:24:12.551Z,32.80
2023-02-11T08:26:40.324Z,33.53
2023-02-11T08:29:14.300Z,29.40
2023-02-11T08:31:45.411Z,29.92
2023-02-11T08:34:14.762Z,32.40
2023-02-11T08:36:43.998Z,32.78
2023-02-11T08:39:20.795Z,33.47
2023-02-11T08:41:53.935Z,30.15
2023-02-11T08:44:23.030Z,28.47
2023-02-11T08:46:52.276Z,28.92
2023-02-11T08:49:20.621Z,32.03
2023-02-11T08:51:48.861Z,35.67
2023-02-11T08:54:16.702Z,38.95
2023-02-11T08:56:45.358Z,41.42
2023-02-11T08:59:15.546Z,37.75
2023-02-11T09:01:44.528Z,38.72
2023-02-11T09:04:13.089Z,38.05
2023-02-11T09:06:41.304Z,39.05
2023-02-11T09:09:13.707Z,32.85
2023-02-11T09:11:43.075Z,31.83
2023-02-11T09:14:22.622Z,29.65
2023-02-11T09:16:51.919Z,30.30
2023-02-11T09:19:21.021Z,32.25
2023-02-11T09:21:49.296Z,29.48
2023-02-11T09:24:17.338Z,30.08
2023-02-11T09:26:46.128Z,25.48
2023-02-11T09:29:14.253Z,25.52
2023-02-11T09:31:42.653Z,30.33
2023-02-11T09:34:11.519Z,31.85
2023-02-11T09:36:40.870Z,31.00
2023-02-11T09:39:20.556Z,26.05
2023-02-11T09:42:03.833Z,25.85
2023-02-11T09:44:37.640Z,26.95
2023-02-11T09:50:00.269Z,24.75
2023-02-11T09:52:48.318Z,29.42
2023-02-11T09:55:29.953Z,28.52
2023-02-11T09:57:58.973Z,28.13
2023-02-11T10:00:29.507Z,28.40
2023-02-11T10:03:20.742Z,28.70
2023-02-11T10:06:14.120Z,28.70
2023-02-11T10:09:17.227Z,31.52
2023-02-11T10:11:53.206Z,28.63
2023-02-11T10:14:39.726Z,26.33
2023-02-11T10:17:18.485Z,27.90
2023-02-11T10:20:17.186Z,28.95
2023-02-11T10:22:58.358Z,30.17
2023-02-11T10:25:39.429Z,28.55
2023-02-11T10:28:20.323Z,28.73
2023-02-11T10:31:34.493Z,28.08
2023-02-11T10:34:07.178Z,26.25
2023-02-11T10:36:38.283Z,26.88
2023-02-11T10:39:18.558Z,28.80
2023-02-11T10:42:01.080Z,28.88
2023-02-11T10:44:38.754Z,28.15
2023-02-11T10:47:19.321Z,28.08
2023-02-11T11:15:11.771Z,28.13
2023-02-11T11:17:40.222Z,27.77
2023-02-11T11:20:19.868Z,27.65
2023-02-11T11:22:49.813Z,28.02
2023-02-11T11:25:23.099Z,26.58
2023-02-11T11:27:55.290Z,27.35
2023-02-11T11:30:26.436Z,27.05
2023-02-11T11:32:54.942Z,28.85
2023-02-11T11:35:28.248Z,29.75
2023-02-11T11:38:02.038Z,32.35
2023-02-11T11:40:33.091Z,31.55
2023-02-11T11:43:14.808Z,32.35
2023-02-11T11:46:00.267Z,30.83
2023-02-11T11:48:50.945Z,30.90
2023-02-11T11:51:19.885Z,31.40
2023-02-11T11:54:01.392Z,31.95
2023-02-11T11:56:33.776Z,33.15
2023-02-11T11:59:07.040Z,32.72
2023-02-11T12:02:02.063Z,31.35
2023-02-11T12:04:39.233Z,33.13
2023-02-11T12:07:12.819Z,31.13
2023-02-11T12:10:14.662Z,30.27
2023-02-11T12:13:18.427Z,31.98
2023-02-11T12:15:55.261Z,31.15
2023-02-11T12:18:56.777Z,31.45
2023-02-11T12:21:43.069Z,30.80
2023-02-11T12:24:48.083Z,31.20
2023-02-11T12:27:32.846Z,27.63
2023-02-11T12:30:13.407Z,27.02
2023-02-11T12:33:15.726Z,29.33
2023-02-11T12:35:58.678Z,26.85
2023-02-11T12:38:48.550Z,26.50
2023-02-11T12:42:04.098Z,30.42
2023-02-11T12:44:58.729Z,28.45
2023-02-11T12:47:35.890Z,28.92
2023-02-11T12:50:27.983Z,30.05
2023-02-11T12:53:14.178Z,29.48
2023-02-11T12:55:46.721Z,29.92
2023-02-11T12:58:29.721Z,29.83
2023-02-11T13:01:26.436Z,29.17
2023-02-11T13:04:08.642Z,28.05
2023-02-11T13:06:52.127Z,29.05
2023-02-11T13:09:43.985Z,28.75
2023-02-11T13:12:32.414Z,25.48
2023-02-11T13:15:07.146Z,25.17
2023-02-11T13:17:50.273Z,24.65
2023-02-11T13:20:18.748Z,25.35
2023-02-11T13:22:59.618Z,23.25
2023-02-11T13:25:33.516Z,24.13
2023-02-11T13:30:39.441Z,17.63
2023-02-11T13:33:17.924Z,18.50
2023-02-11T13:35:51.185Z,18.40
2023-02-11T13:38:25.113Z,15.63
2023-02-11T13:41:23.516Z,9.25
2023-02-11T13:44:19.430Z,10.63
2023-02-11T13:46:50.575Z,10.63
2023-02-11T13:49:22.318Z,13.55
2023-02-11T13:51:51.407Z,13.02
2023-02-11T13:54:30.815Z,12.80
2023-02-11T13:57:20.865Z,13.77
2023-02-11T13:59:52.519Z,14.23
2023-02-11T14:02:55.328Z,15.45
2023-02-11T14:05:43.538Z,14.88
2023-02-11T14:08:30.042Z,15.38
2023-02-11T14:11:10.936Z,15.07
2023-02-11T14:13:47.714Z,16.75
2023-02-11T14:16:37.002Z,14.48
2023-02-11T14:19:06.863Z,16.80
2023-02-11T14:21:38.749Z,14.70
2023-02-11T14:24:07.100Z,14.02
2023-02-11T14:27:11.750Z,19.23
2023-02-11T14:32:35.090Z,20.23
2023-02-11T14:35:18.557Z,21.73
2023-02-11T14:37:57.588Z,21.83
2023-02-11T14:40:35.335Z,20.42
2023-02-11T14:43:29.426Z,17.85
2023-02-11T14:45:59.324Z,17.50
2023-02-11T14:48:39.231Z,18.55
2023-02-11T14:51:10.570Z,21.15
2023-02-11T14:53:44.052Z,21.30
2023-02-11T14:56:26.970Z,21.65
2023-02-11T14:58:55.955Z,20.38
2023-02-11T15:01:35.582Z,22.92
2023-02-11T15:04:06.153Z,24.45
2023-02-11T15:06:49.668Z,24.08
2023-02-11T15:09:24.177Z,22.77
2023-02-11T15:11:53.395Z,22.92
2023-02-11T15:14:30.336Z,22.17
2023-02-11T15:17:06.299Z,21.83
2023-02-11T15:19:38.818Z,22.88
2023-02-11T15:22:18.627Z,23.50
2023-02-11T15:25:10.838Z,20.65
2023-02-11T15:27:43.886Z,20.95
2023-02-11T15:30:24.413Z,21.30
2023-02-11T15:32:58.693Z,20.90
2023-02-11T15:35:33.139Z,19.88
2023-02-11T15:38:01.653Z,27.83
2023-02-11T15:40:33.144Z,26.75
2023-02-11T15:43:09.206Z,26.67
2023-02-11T15:45:42.000Z,29.90
2023-02-11T15:48:18.874Z,30.35
2023-02-11T15:50:55.634Z,30.52
2023-02-11T15:53:38.012Z,31.80
2023-02-11T15:56:17.873Z,31.15
2023-02-11T15:58:49.804Z,30.58
2023-02-11T16:01:18.072Z,31.55
2023-02-11T16:03:50.927Z,33.25
2023-02-11T16:06:25.209Z,32.10
2023-02-11T16:09:12.436Z,33.35
2023-02-11T16:11:46.455Z,32.75
2023-02-11T16:14:39.578Z,32.45
2023-02-11T16:17:25.234Z,32.65
2023-02-11T16:19:54.305Z,32.38
2023-02-11T16:22:35.445Z,31.17
2023-02-11T16:25:03.335Z,32.08
2023-02-11T16:27:41.186Z,33.85
2023-02-11T16:30:28.172Z,32.83
2023-02-11T16:32:56.559Z,31.27
2023-02-11T16:35:24.753Z,34.33
2023-02-11T16:37:52.850Z,31.15
2023-02-11T16:40:21.579Z,30.05
2023-02-11T16:42:49.853Z,30.73
2023-02-11T16:45:18.151Z,31.08
2023-02-11T16:47:46.563Z,31.50
2023-02-11T16:50:23.384Z,34.22
2023-02-11T16:52:53.002Z,30.02
2023-02-11T16:55:22.268Z,32.38
2023-02-11T16:57:50.143Z,28.70
2023-02-11T17:00:19.254Z,31.50
2023-02-11T17:02:47.049Z,29.55
2023-02-11T17:05:20.853Z,30.85
2023-02-11T17:10:21.749Z,30.38
2023-02-11T17:12:51.052Z,31.67
2023-02-11T17:15:19.204Z,30.88
2023-02-11T17:17:46.875Z,32.47
2023-02-11T17:20:16.096Z,32.97
2023-02-11T17:22:44.034Z,30.95
2023-02-11T17:25:12.313Z,32.38
2023-02-11T17:27:40.964Z,33.75
2023-02-11T17:30:10.045Z,32.00
2023-02-11T17:32:39.028Z,32.88
2023-02-11T17:35:07.598Z,35.50
2023-02-11T17:37:35.321Z,36.58
2023-02-11T17:40:03.940Z,34.22
2023-02-11T17:42:31.528Z,37.92
2023-02-11T17:44:59.033Z,37.97
2023-02-11T17:47:27.427Z,39.03
2023-02-11T17:49:54.912Z,35.35
2023-02-11T17:52:24.401Z,36.22
2023-02-11T17:54:52.079Z,36.10
2023-02-11T17:57:20.384Z,34.28
2023-02-11T17:59:47.879Z,36.53
2023-02-11T18:02:16.051Z,35.80
2023-02-11T18:04:44.367Z,39.20
2023-02-11T18:07:12.030Z,42.03
2023-02-11T18:09:40.992Z,35.58
2023-02-11T18:12:10.785Z,40.90
2023-02-11T18:14:40.632Z,34.47
2023-02-11T18:17:09.506Z,32.40
2023-02-11T18:19:37.691Z,38.63
2023-02-11T18:22:05.255Z,33.88
2023-02-11T18:24:33.708Z,39.08
2023-02-11T18:27:01.478Z,36.28
2023-02-11T18:29:29.737Z,35.45
2023-02-11T18:31:58.089Z,37.38
2023-02-11T18:34:26.847Z,40.72
2023-02-11T18:36:54.945Z,34.53
2023-02-11T18:39:24.411Z,37.67
2023-02-11T18:41:57.076Z,38.78
2023-02-11T18:44:27.135Z,36.80
2023-02-11T18:46:55.486Z,42.00
2023-02-11T18:49:23.581Z,35.38
2023-02-11T18:51:51.898Z,35.55
2023-02-11T18:54:19.786Z,36.20
2023-02-11T18:56:47.882Z,35.90
2023-02-11T18:59:15.564Z,35.08
2023-02-11T19:01:46.872Z,37.13
2023-02-11T19:04:20.132Z,40.30
2023-02-11T19:06:49.811Z,38.83
2023-02-11T19:09:19.918Z,38.80
2023-02-11T19:11:48.038Z,36.80
2023-02-11T19:14:22.528Z,41.35
2023-02-11T19:16:53.247Z,42.05
2023-02-11T19:19:23.264Z,46.08
2023-02-11T19:21:51.925Z,47.78
2023-02-11T19:24:20.326Z,47.83
2023-02-11T19:26:50.186Z,45.65
2023-02-11T19:29:18.282Z,42.30
2023-02-11T19:31:46.881Z,44.05
2023-02-11T19:34:16.665Z,39.28
2023-02-11T19:36:44.446Z,39.47
2023-02-11T19:39:12.725Z,40.20
2023-02-11T19:41:40.866Z,36.25
2023-02-11T19:44:09.972Z,40.53
2023-02-11T19:46:41.073Z,42.75
2023-02-11T19:49:10.104Z,42.28
2023-02-11T19:51:39.473Z,40.15
2023-02-11T19:54:08.426Z,42.00
2023-02-11T19:56:37.974Z,41.97
2023-02-11T19:59:09.065Z,40.13
2023-02-11T20:01:37.334Z,54.95
2023-02-11T20:04:06.010Z,49.88
2023-02-11T20:06:34.795Z,45.67
2023-02-11T20:09:06.644Z,42.60
2023-02-11T20:11:35.624Z,56.80
2023-02-11T20:14:04.343Z,47.08
2023-02-11T20:16:47.024Z,50.17
2023-02-11T20:19:18.374Z,44.38
2023-02-11T20:21:48.620Z,40.72
2023-02-11T20:24:18.881Z,42.83
2023-02-11T20:26:48.605Z,43.78
2023-02-11T20:29:17.609Z,41.75
2023-02-11T20:31:45.781Z,43.95
2023-02-11T20:34:17.061Z,41.15
2023-02-11T20:36:51.532Z,42.63
2023-02-11T20:39:22.370Z,46.83
2023-02-11T20:41:51.261Z,45.08
2023-02-11T20:44:23.834Z,42.63
2023-02-11T20:46:52.156Z,44.95
2023-02-11T20:49:23.692Z,42.40
2023-02-11T20:51:53.361Z,42.00
2023-02-11T20:54:23.491Z,43.05
2023-02-11T20:56:53.718Z,42.55
2023-02-11T20:59:22.024Z,43.42
2023-02-11T21:01:55.841Z,40.55
2023-02-11T21:06:56.725Z,41.65
2023-02-11T21:09:28.086Z,46.30
2023-02-11T21:11:55.994Z,48.30
2023-02-11T21:14:25.886Z,44.80
2023-02-11T21:16:54.191Z,45.97
2023-02-11T21:19:21.894Z,49.10
2023-02-11T21:21:50.440Z,43.60
2023-02-11T21:24:18.486Z,47.08
2023-02-11T21:26:46.106Z,46.95
2023-02-11T21:29:14.043Z,47.70
2023-02-11T21:31:42.551Z,47.17
2023-02-11T21:34:10.801Z,47.58
2023-02-11T21:36:39.174Z,46.40
2023-02-11T21:39:07.083Z,48.25
2023-02-11T21:41:35.619Z,46.50
2023-02-11T21:44:06.120Z,47.85
2023-02-11T21:46:33.665Z,52.28
2023-02-11T21:49:01.880Z,51.97
2023-02-11T21:51:30.266Z,49.05
2023-02-11T21:54:03.070Z,48.25
2023-02-11T21:56:32.159Z,47.88
2023-02-11T21:59:00.706Z,45.80
2023-02-11T22:01:31.160Z,48.33
2023-02-11T22:04:00.176Z,45.50
2023-02-11T22:06:32.949Z,51.47
2023-02-11T22:09:07.479Z,50.33
2023-02-11T22:11:36.310Z,47.63
2023-02-11T22:14:04.794Z,44.83
2023-02-11T22:16:33.446Z,51.63
2023-02-11T22:19:02.566Z,54.30
2023-02-11T22:21:30.985Z,50.50
2023-02-11T22:23:59.069Z,51.70
2023-02-11T22:26:28.650Z,49.58
2023-02-11T22:28:56.588Z,48.38
2023-02-11T22:31:30.688Z,48.97
2023-02-11T22:34:00.180Z,49.90
2023-02-11T22:36:30.838Z,51.30
2023-02-11T22:39:11.548Z,49.22
2023-02-11T22:41:42.372Z,48.88
2023-02-11T22:44:11.135Z,51.75
2023-02-11T22:46:39.198Z,51.05
2023-02-11T22:49:07.858Z,59.50
2023-02-11T22:51:35.641Z,54.28
2023-02-11T22:54:06.558Z,57.22
2023-02-11T22:56:35.331Z,62.03
2023-02-11T22:59:07.927Z,61.25
2023-02-11T23:01:35.543Z,58.20
2023-02-11T23:04:05.009Z,60.40
2023-02-11T23:06:33.083Z,59.03
2023-02-11T23:09:01.587Z,58.15
2023-02-11T23:11:31.336Z,54.38
2023-02-11T23:13:59.428Z,54.55
2023-02-11T23:16:34.132Z,51.47
2023-02-11T23:19:09.151Z,53.92
2023-02-11T23:21:39.560Z,52.35
2023-02-11T23:24:12.676Z,50.92
2023-02-11T23:26:41.751Z,50.83
2023-02-11T23:29:10.568Z,49.63
2023-02-11T23:31:41.316Z,55.03
2023-02-11T23:34:09.885Z,52.97
2023-02-11T23:36:37.848Z,52.70
2023-02-11T23:39:05.941Z,54.30
2023-02-11T23:41:33.882Z,50.60
2023-02-11T23:44:01.765Z,49.72
2023-02-11T23:46:29.364Z,51.80
2023-02-11T23:48:58.203Z,53.83
2023-02-11T23:51:25.916Z,48.60
2023-02-11T23:53:56.176Z,50.05
2023-02-11T23:56:27.112Z,48.17
2023-02-11T23:58:57.360Z,45.97
